URMT 281230Z 10003MPS CAVOK 23/07 Q1007 R07/010070 NOSIG RMK QFE716
QNH:(hPa/inHg/mmHg)1007 / 29.74 / 755
QFE:(hPa/inHg/mmHg)990 / 29.24 / 743
Temperature23
Dew Point7
Visibility> 10000
WeatherCAVOK
Cloud Cover
Transition Altitude5000 ft.
Transition LevelFL70
SQUAWK